Time;durP1;ratioP1;P1;durP2;ratioP2;P2;SDS_P1;SDS_P2;PMS_P1;PMS_P2;Temp;Humidity;BMP_temperature;BMP_pressure;BME280_temperature;BME280_humidity;BME280_pressure;Samples;Min_cycle;Max_cycle;Signal;HPM_P1;HPM_P2
2022/06/14 00:02:54;;;;;;;7.47;3.00;;;;;;;;;;6202387;28;20244;-73
2022/06/14 00:06:16;;;;;;;8.20;3.37;;;;;;;;;;6191299;28;20328;-73
2022/06/14 00:09:37;;;;;;;4.70;2.67;;;;;;;;;;6205972;28;20257;-72
2022/06/14 00:12:57;;;;;;;5.27;2.77;;;;;;;;;;6204711;28;20233;-72
2022/06/14 00:16:20;;;;;;;5.63;1.93;;;;;;;;;;6204816;28;20232;-72
2022/06/14 00:19:40;;;;;;;6.40;2.10;;;;;;;;;;6199636;28;20230;-73
2022/06/14 00:23:01;;;;;;;5.87;2.23;;;;;;;;;;6197901;28;20523;-72
2022/06/14 00:26:21;;;;;;;4.57;2.87;;;;;;;;;;6201944;28;20229;-73
2022/06/14 00:29:42;;;;;;;5.27;1.70;;;;;;;;;;6202081;28;20225;-73
2022/06/14 00:33:04;;;;;;;5.90;2.90;;;;;;;;;;6197098;28;20587;-71
2022/06/14 00:36:28;;;;;;;5.43;2.13;;;;;;;;;;6201550;28;20233;-73
2022/06/14 00:39:48;;;;;;;4.07;2.00;;;;;;;;;;6199318;28;20233;-73
2022/06/14 00:43:13;;;;;;;6.07;1.73;;;;;;;;;;6200794;28;20236;-72
2022/06/14 00:46:36;;;;;;;9.13;2.43;;;;;;;;;;6198485;28;20304;-73
2022/06/14 00:50:00;;;;;;;4.70;2.00;;;;;;;;;;6203679;28;20233;-72
2022/06/14 00:53:23;;;;;;;5.80;2.40;;;;;;;;;;6201364;28;20237;-73
2022/06/14 00:56:48;;;;;;;5.73;2.00;;;;;;;;;;6198255;28;20256;-72
2022/06/14 01:00:10;;;;;;;5.33;2.47;;;;;;;;;;6199199;28;20248;-71
2022/06/14 01:03:33;;;;;;;8.63;2.20;;;;;;;;;;6198526;28;20232;-72
2022/06/14 01:06:57;;;;;;;8.13;2.53;;;;;;;;;;6199387;28;20514;-72
2022/06/14 01:10:20;;;;;;;6.43;2.43;;;;;;;;;;6192398;28;20248;-72
2022/06/14 01:13:41;;;;;;;6.40;2.10;;;;;;;;;;6197150;28;20268;-73
2022/06/14 01:17:02;;;;;;;7.10;2.13;;;;;;;;;;6200941;28;20236;-73
2022/06/14 01:20:23;;;;;;;8.67;3.23;;;;;;;;;;6200975;28;20232;-73
2022/06/14 01:23:45;;;;;;;5.73;2.80;;;;;;;;;;6202729;28;20674;-72
2022/06/14 01:27:07;;;;;;;8.70;2.43;;;;;;;;;;6194828;28;20705;-72
2022/06/14 01:30:31;;;;;;;5.60;2.03;;;;;;;;;;6194926;28;20229;-72
2022/06/14 01:33:54;;;;;;;5.57;1.90;;;;;;;;;;6197490;28;20241;-72
2022/06/14 01:37:15;;;;;;;5.13;2.80;;;;;;;;;;6200026;28;20241;-73
2022/06/14 01:40:41;;;;;;;6.73;3.03;;;;;;;;;;6201327;28;20240;-72
2022/06/14 01:44:18;;;;;;;5.03;2.03;;;;;;;;;;6195459;28;20236;-73
2022/06/14 01:47:44;;;;;;;4.97;2.10;;;;;;;;;;6199151;28;20232;-72
2022/06/14 01:54:47;;;;;;;6.63;2.57;;;;;;;;;;6199468;28;20248;-72
2022/06/14 01:58:16;;;;;;;6.37;2.20;;;;;;;;;;6200558;28;20686;-72
2022/06/14 02:01:39;;;;;;;6.17;2.50;;;;;;;;;;6199140;28;20228;-72
2022/06/14 02:05:02;;;;;;;8.40;2.33;;;;;;;;;;6203102;28;20251;-72
2022/06/14 02:08:25;;;;;;;5.57;2.10;;;;;;;;;;6200871;28;20249;-71
2022/06/14 02:11:46;;;;;;;6.67;2.03;;;;;;;;;;6203510;28;20233;-72
2022/06/14 02:15:12;;;;;;;4.47;1.63;;;;;;;;;;6199900;28;20233;-72
2022/06/14 02:18:35;;;;;;;7.10;2.40;;;;;;;;;;6201241;28;20229;-72
2022/06/14 02:21:58;;;;;;;5.90;2.63;;;;;;;;;;6200788;28;20225;-73
2022/06/14 02:25:21;;;;;;;6.37;2.50;;;;;;;;;;6162433;28;1091737;-71
2022/06/14 02:28:43;;;;;;;6.10;2.00;;;;;;;;;;6203285;28;20237;-73
2022/06/14 02:32:08;;;;;;;8.67;2.77;;;;;;;;;;6202848;28;20240;-71
2022/06/14 02:35:31;;;;;;;8.03;2.93;;;;;;;;;;6204361;28;20226;-72
2022/06/14 02:38:54;;;;;;;7.90;2.60;;;;;;;;;;6201339;28;20316;-72
2022/06/14 02:42:17;;;;;;;7.80;3.00;;;;;;;;;;6202390;28;20237;-72
2022/06/14 02:45:40;;;;;;;6.40;2.17;;;;;;;;;;6202253;28;20229;-73
2022/06/14 02:49:04;;;;;;;8.03;2.43;;;;;;;;;;6204275;28;20225;-72
2022/06/14 02:52:30;;;;;;;5.23;2.03;;;;;;;;;;6202742;28;20234;-72
2022/06/14 02:55:52;;;;;;;7.70;2.30;;;;;;;;;;6201990;28;20271;-72
2022/06/14 02:59:16;;;;;;;6.40;2.30;;;;;;;;;;6201275;28;20238;-72
2022/06/14 03:02:40;;;;;;;5.33;2.17;;;;;;;;;;6203447;28;20233;-73
2022/06/14 03:06:03;;;;;;;6.40;3.07;;;;;;;;;;6204677;28;20237;-73
2022/06/14 03:09:25;;;;;;;6.80;3.10;;;;;;;;;;6206070;28;20244;-72
2022/06/14 03:12:48;;;;;;;5.10;1.70;;;;;;;;;;6205079;28;20232;-73
2022/06/14 03:16:13;;;;;;;10.43;2.70;;;;;;;;;;6198969;28;20835;-72
2022/06/14 03:19:38;;;;;;;3.93;1.77;;;;;;;;;;6202428;28;20237;-72
2022/06/14 03:23:08;;;;;;;6.50;2.13;;;;;;;;;;6201850;28;20233;-73
2022/06/14 03:26:31;;;;;;;4.60;2.03;;;;;;;;;;6207952;28;20232;-72
2022/06/14 03:29:55;;;;;;;6.53;2.60;;;;;;;;;;6200939;28;20232;-72
2022/06/14 03:33:18;;;;;;;5.00;1.90;;;;;;;;;;6199736;28;20562;-73
2022/06/14 03:36:39;;;;;;;7.47;2.60;;;;;;;;;;6207563;28;20241;-72
2022/06/14 03:40:02;;;;;;;7.57;2.60;;;;;;;;;;6205503;28;20257;-72
2022/06/14 03:43:23;;;;;;;12.60;3.07;;;;;;;;;;6197298;28;20229;-72
2022/06/14 03:46:46;;;;;;;5.70;2.17;;;;;;;;;;6198644;28;20258;-73
2022/06/14 03:50:09;;;;;;;5.37;2.63;;;;;;;;;;6201858;28;20225;-73
2022/06/14 03:53:38;;;;;;;7.97;2.40;;;;;;;;;;6201002;28;20316;-72
2022/06/14 03:57:05;;;;;;;7.63;2.60;;;;;;;;;;6205333;28;20236;-73
2022/06/14 04:00:32;;;;;;;5.17;2.97;;;;;;;;;;6199487;28;20967;-72
2022/06/14 04:03:59;;;;;;;4.57;2.20;;;;;;;;;;6202124;28;20229;-71
2022/06/14 04:07:23;;;;;;;8.93;2.73;;;;;;;;;;6204469;28;20240;-72
2022/06/14 04:10:47;;;;;;;6.70;3.93;;;;;;;;;;6205069;28;20237;-74
2022/06/14 04:14:28;;;;;;;5.17;2.30;;;;;;;;;;6183807;28;20229;-72
2022/06/14 04:17:52;;;;;;;5.37;2.63;;;;;;;;;;6199205;28;20233;-73
2022/06/14 04:21:19;;;;;;;8.80;3.13;;;;;;;;;;6196275;28;21157;-73
2022/06/14 04:24:42;;;;;;;7.53;2.83;;;;;;;;;;6200310;28;20803;-73
2022/06/14 04:28:08;;;;;;;3.77;2.30;;;;;;;;;;6203580;28;20225;-73
2022/06/14 04:31:31;;;;;;;7.63;2.93;;;;;;;;;;6198778;28;20233;-73
2022/06/14 04:34:53;;;;;;;3.43;2.30;;;;;;;;;;6200952;28;20607;-74
2022/06/14 04:38:17;;;;;;;7.17;2.37;;;;;;;;;;6199765;28;20225;-72
2022/06/14 04:41:41;;;;;;;9.10;3.40;;;;;;;;;;6186504;28;21374;-72
2022/06/14 04:45:05;;;;;;;10.23;3.63;;;;;;;;;;6198052;28;20229;-72
2022/06/14 04:48:33;;;;;;;6.53;2.43;;;;;;;;;;6193878;28;20617;-73
2022/06/14 04:51:55;;;;;;;5.77;2.57;;;;;;;;;;6200573;28;20237;-72
2022/06/14 04:55:18;;;;;;;7.17;2.87;;;;;;;;;;6197405;28;20229;-73
2022/06/14 04:58:40;;;;;;;6.83;3.03;;;;;;;;;;6197856;28;20237;-72
2022/06/14 05:02:03;;;;;;;8.67;3.00;;;;;;;;;;6193343;28;20229;-73
2022/06/14 05:05:29;;;;;;;7.07;2.73;;;;;;;;;;6195816;28;20237;-73
2022/06/14 05:08:53;;;;;;;5.40;3.47;;;;;;;;;;6191202;28;20228;-73
2022/06/14 05:12:18;;;;;;;5.77;2.53;;;;;;;;;;6184650;28;20308;-74
2022/06/14 05:15:40;;;;;;;7.87;2.70;;;;;;;;;;6176165;28;20241;-73
2022/06/14 05:19:08;;;;;;;10.40;2.77;;;;;;;;;;6199422;28;20225;-72
2022/06/14 05:22:32;;;;;;;5.90;2.33;;;;;;;;;;6200798;28;20229;-74
2022/06/14 05:25:58;;;;;;;6.80;2.97;;;;;;;;;;6204468;28;20237;-73
2022/06/14 05:29:21;;;;;;;6.67;2.33;;;;;;;;;;6198621;28;20237;-74
2022/06/14 05:32:46;;;;;;;4.93;2.07;;;;;;;;;;6199761;28;20355;-73
2022/06/14 05:36:10;;;;;;;10.73;3.10;;;;;;;;;;6199054;28;20249;-75
2022/06/14 05:39:35;;;;;;;9.07;3.03;;;;;;;;;;6201653;28;20241;-74
2022/06/14 05:42:57;;;;;;;11.83;3.73;;;;;;;;;;6205409;28;20228;-74
2022/06/14 05:46:20;;;;;;;8.13;3.17;;;;;;;;;;6200247;28;20603;-73
2022/06/14 05:49:44;;;;;;;10.57;2.90;;;;;;;;;;6204237;28;20225;-73
2022/06/14 05:53:06;;;;;;;11.07;3.63;;;;;;;;;;6204758;28;20590;-73
2022/06/14 05:56:31;;;;;;;10.40;3.03;;;;;;;;;;6203909;28;20228;-74
2022/06/14 05:59:55;;;;;;;5.33;2.27;;;;;;;;;;6205209;28;20233;-75
2022/06/14 06:03:18;;;;;;;8.93;3.27;;;;;;;;;;6204669;28;20236;-74
2022/06/14 06:06:41;;;;;;;7.67;3.37;;;;;;;;;;6209429;28;20823;-74
2022/06/14 06:10:03;;;;;;;7.57;2.93;;;;;;;;;;6208109;28;21060;-73
2022/06/14 06:13:29;;;;;;;10.37;3.23;;;;;;;;;;6208911;28;20995;-74
2022/06/14 06:16:54;;;;;;;7.20;2.83;;;;;;;;;;6205097;28;20229;-75
2022/06/14 06:20:19;;;;;;;7.77;2.80;;;;;;;;;;6203775;28;20319;-74
2022/06/14 06:23:43;;;;;;;13.40;3.77;;;;;;;;;;6209147;28;20335;-73
2022/06/14 06:27:07;;;;;;;8.07;3.00;;;;;;;;;;6205910;28;20232;-74
2022/06/14 06:30:32;;;;;;;12.77;3.33;;;;;;;;;;6203047;28;20500;-74
2022/06/14 06:33:55;;;;;;;7.07;3.33;;;;;;;;;;6209732;28;20229;-74
2022/06/14 06:37:18;;;;;;;7.93;3.67;;;;;;;;;;6208734;28;20540;-73
2022/06/14 06:41:49;;;;;;;10.90;3.10;;;;;;;;;;6207638;28;20253;-74
2022/06/14 06:44:24;;;;;;;10.00;3.23;;;;;;;;;;6209123;28;20225;-75
2022/06/14 06:47:49;;;;;;;9.93;4.17;;;;;;;;;;6211129;28;20874;-72
2022/06/14 06:51:11;;;;;;;6.47;2.60;;;;;;;;;;6214065;28;20222;-75
2022/06/14 06:54:35;;;;;;;8.03;2.33;;;;;;;;;;6208720;28;20640;-74
2022/06/14 06:57:56;;;;;;;7.63;2.73;;;;;;;;;;6209401;28;20547;-75
2022/06/14 07:01:20;;;;;;;6.70;2.93;;;;;;;;;;6209284;28;20226;-73
2022/06/14 07:08:25;;;;;;;6.13;3.10;;;;;;;;;;6213869;28;20225;-73
2022/06/14 07:11:48;;;;;;;8.93;2.77;;;;;;;;;;6209976;28;20558;-74
2022/06/14 07:15:13;;;;;;;7.60;2.27;;;;;;;;;;6212401;28;20252;-74
2022/06/14 07:18:35;;;;;;;5.07;2.20;;;;;;;;;;6210537;28;20232;-74
2022/06/14 07:22:01;;;;;;;6.73;2.97;;;;;;;;;;6210928;28;20365;-74
2022/06/14 07:25:24;;;;;;;7.10;2.47;;;;;;;;;;6212147;28;20248;-74
2022/06/14 07:28:54;;;;;;;5.80;2.30;;;;;;;;;;6212235;28;20225;-74
2022/06/14 07:32:17;;;;;;;6.30;2.43;;;;;;;;;;6208539;28;20519;-74
2022/06/14 07:35:41;;;;;;;6.23;2.70;;;;;;;;;;6212753;28;20324;-74
2022/06/14 07:39:06;;;;;;;10.07;2.80;;;;;;;;;;6212561;28;20785;-75
2022/06/14 07:42:32;;;;;;;5.17;2.80;;;;;;;;;;6208944;28;20280;-74
2022/06/14 07:45:53;;;;;;;7.67;3.43;;;;;;;;;;6211367;28;20786;-73
2022/06/14 07:49:17;;;;;;;6.33;1.97;;;;;;;;;;6210992;28;20316;-73
2022/06/14 07:52:42;;;;;;;8.97;3.53;;;;;;;;;;6211948;28;20319;-74
2022/06/14 07:56:08;;;;;;;11.77;3.43;;;;;;;;;;6205998;28;20221;-74
2022/06/14 07:59:31;;;;;;;5.37;2.13;;;;;;;;;;6208935;28;20234;-74
2022/06/14 08:02:54;;;;;;;5.13;2.07;;;;;;;;;;6211365;28;20275;-75
2022/06/14 08:06:17;;;;;;;6.43;2.60;;;;;;;;;;6206803;28;20225;-73
2022/06/14 08:09:41;;;;;;;7.17;2.80;;;;;;;;;;6211949;28;20229;-73
2022/06/14 08:13:06;;;;;;;8.67;3.37;;;;;;;;;;6209142;28;20225;-74
2022/06/14 08:16:27;;;;;;;6.10;2.30;;;;;;;;;;6211343;28;20241;-74
2022/06/14 08:19:50;;;;;;;6.27;2.47;;;;;;;;;;6211266;28;20241;-73
2022/06/14 08:23:14;;;;;;;8.33;2.17;;;;;;;;;;6208647;28;20226;-73
2022/06/14 08:26:36;;;;;;;4.40;1.97;;;;;;;;;;6209529;28;20228;-74
2022/06/14 08:30:01;;;;;;;6.77;2.23;;;;;;;;;;6210926;28;20229;-73
2022/06/14 08:33:26;;;;;;;6.73;2.03;;;;;;;;;;6206938;28;20221;-74
2022/06/14 08:36:52;;;;;;;11.02;3.08;;;;;;;;;;6211931;28;20492;-74
2022/06/14 08:40:18;;;;;;;8.68;2.08;;;;;;;;;;6203678;28;20251;-73
2022/06/14 08:43:42;;;;;;;8.40;2.17;;;;;;;;;;6195011;28;20511;-73
2022/06/14 08:47:12;;;;;;;3.67;1.70;;;;;;;;;;6183555;28;21532;-73
2022/06/14 08:50:46;;;;;;;7.13;2.83;;;;;;;;;;6209941;28;20515;-74
2022/06/14 08:54:16;;;;;;;2.73;1.77;;;;;;;;;;6209406;28;20339;-74
2022/06/14 08:57:52;;;;;;;6.17;2.03;;;;;;;;;;6197359;28;20236;-73
2022/06/14 09:01:19;;;;;;;6.03;2.10;;;;;;;;;;6209295;28;20244;-73
2022/06/14 09:04:58;;;;;;;7.93;2.83;;;;;;;;;;6206262;28;20233;-74
2022/06/14 09:08:32;;;;;;;6.30;1.90;;;;;;;;;;6209659;28;20761;-72
2022/06/14 09:12:17;;;;;;;4.93;2.10;;;;;;;;;;6209146;28;20257;-74
2022/06/14 09:15:59;;;;;;;7.18;3.40;;;;;;;;;;6198081;28;20229;-74
2022/06/14 09:19:26;;;;;;;6.25;2.67;;;;;;;;;;6210054;28;20229;-74
2022/06/14 09:22:52;;;;;;;4.00;2.03;;;;;;;;;;6209478;28;20517;-72
2022/06/14 09:26:28;;;;;;;4.88;2.40;;;;;;;;;;6204863;28;20245;-74
2022/06/14 09:30:04;;;;;;;4.90;2.10;;;;;;;;;;6210875;28;20627;-73
2022/06/14 09:33:43;;;;;;;6.20;2.50;;;;;;;;;;6204505;28;20241;-74
2022/06/14 09:37:16;;;;;;;4.30;1.63;;;;;;;;;;6206129;28;20316;-73
2022/06/14 09:40:52;;;;;;;5.45;2.17;;;;;;;;;;6203877;28;20257;-73
2022/06/14 09:44:27;;;;;;;7.72;2.38;;;;;;;;;;6196540;28;20338;-73
2022/06/14 09:47:58;;;;;;;2.85;1.40;;;;;;;;;;6207277;28;20229;-74
2022/06/14 09:51:41;;;;;;;7.80;2.20;;;;;;;;;;6206527;28;20232;-73
2022/06/14 09:55:18;;;;;;;4.03;1.88;;;;;;;;;;6210797;28;20304;-72
2022/06/14 09:59:00;;;;;;;7.20;2.25;;;;;;;;;;6205260;28;20598;-73
2022/06/14 10:02:28;;;;;;;4.15;1.80;;;;;;;;;;6185262;28;20604;-78
2022/06/14 10:05:58;;;;;;;4.68;1.98;;;;;;;;;;6208319;28;20228;-73
2022/06/14 10:09:32;;;;;;;4.15;2.15;;;;;;;;;;6207703;28;20232;-73
2022/06/14 10:13:04;;;;;;;6.93;2.42;;;;;;;;;;6207963;28;20283;-73
2022/06/14 10:16:35;;;;;;;3.88;1.70;;;;;;;;;;6204775;28;20257;-73
2022/06/14 10:20:04;;;;;;;4.95;1.60;;;;;;;;;;6210533;28;20587;-73
2022/06/14 10:23:35;;;;;;;5.13;2.15;;;;;;;;;;6211922;28;20228;-74
2022/06/14 10:31:03;;;;;;;5.50;1.98;;;;;;;;;;6214143;28;20221;-73
2022/06/14 10:34:28;;;;;;;5.18;1.90;;;;;;;;;;6210617;28;20229;-74
2022/06/14 10:37:56;;;;;;;5.22;1.90;;;;;;;;;;6214241;28;20229;-73
2022/06/14 10:41:21;;;;;;;2.95;1.83;;;;;;;;;;6212436;28;20259;-74
2022/06/14 10:44:44;;;;;;;4.10;2.13;;;;;;;;;;6213597;28;20225;-74
2022/06/14 10:48:20;;;;;;;4.45;1.40;;;;;;;;;;6212760;28;20228;-74
2022/06/14 10:52:10;;;;;;;9.57;1.88;;;;;;;;;;6215162;28;20251;-74
2022/06/14 10:55:49;;;;;;;4.63;1.60;;;;;;;;;;6119375;28;20239;-73
2022/06/14 10:59:28;;;;;;;6.72;2.22;;;;;;;;;;6212003;28;20236;-73
2022/06/14 11:02:56;;;;;;;5.03;1.85;;;;;;;;;;6208918;28;20348;-73
2022/06/14 11:06:37;;;;;;;3.25;1.77;;;;;;;;;;6209360;28;20228;-73
2022/06/14 11:10:09;;;;;;;3.03;1.50;;;;;;;;;;6205378;28;20320;-73
2022/06/14 11:13:37;;;;;;;3.85;1.42;;;;;;;;;;6210674;28;20590;-74
2022/06/14 11:17:07;;;;;;;3.95;1.45;;;;;;;;;;6208450;28;20568;-74
2022/06/14 11:20:32;;;;;;;6.10;1.88;;;;;;;;;;6212169;28;20244;-73
2022/06/14 11:23:56;;;;;;;5.28;1.60;;;;;;;;;;6209750;28;20225;-73
2022/06/14 11:27:21;;;;;;;6.10;1.85;;;;;;;;;;6208022;28;20228;-73
2022/06/14 11:30:45;;;;;;;3.55;1.95;;;;;;;;;;6207794;28;20241;-73
2022/06/14 11:34:24;;;;;;;3.45;1.42;;;;;;;;;;6209052;28;20237;-73
2022/06/14 11:37:54;;;;;;;5.65;2.03;;;;;;;;;;6207278;28;20256;-72
2022/06/14 11:41:18;;;;;;;4.07;1.65;;;;;;;;;;6209510;28;20240;-73
2022/06/14 11:44:57;;;;;;;3.45;1.60;;;;;;;;;;6208328;28;20229;-75
2022/06/14 11:48:22;;;;;;;4.57;1.40;;;;;;;;;;6190690;28;20261;-74
2022/06/14 11:51:49;;;;;;;3.55;2.05;;;;;;;;;;6206242;28;20652;-74
2022/06/14 11:55:18;;;;;;;3.88;1.20;;;;;;;;;;6209379;28;20225;-73
2022/06/14 11:58:50;;;;;;;2.25;0.98;;;;;;;;;;6210299;28;20495;-74
2022/06/14 12:02:17;;;;;;;2.97;1.42;;;;;;;;;;6211890;28;20241;-73
2022/06/14 12:05:44;;;;;;;3.75;1.77;;;;;;;;;;6203279;28;20252;-74
2022/06/14 12:09:13;;;;;;;2.95;1.38;;;;;;;;;;6210165;28;20229;-73
2022/06/14 12:12:40;;;;;;;5.70;1.88;;;;;;;;;;6212115;28;20228;-74
2022/06/14 12:16:03;;;;;;;3.03;1.90;;;;;;;;;;6210651;28;20481;-73
2022/06/14 12:19:27;;;;;;;1.85;1.13;;;;;;;;;;6210615;28;20813;-73
2022/06/14 12:22:57;;;;;;;4.05;1.48;;;;;;;;;;6204789;28;20218;-73
2022/06/14 12:26:37;;;;;;;3.35;1.65;;;;;;;;;;6210178;28;20220;-73
2022/06/14 12:30:00;;;;;;;3.97;1.33;;;;;;;;;;6199172;28;20320;-73
2022/06/14 12:33:29;;;;;;;3.17;2.35;;;;;;;;;;6206655;28;20572;-72
2022/06/14 12:36:52;;;;;;;2.72;1.58;;;;;;;;;;6202995;28;20339;-71
2022/06/14 12:40:16;;;;;;;1.77;1.00;;;;;;;;;;6210260;28;20221;-70
2022/06/14 12:43:41;;;;;;;2.55;1.50;;;;;;;;;;6196367;28;20681;-72
2022/06/14 12:47:04;;;;;;;2.90;1.42;;;;;;;;;;6196475;28;20251;-70
2022/06/14 12:50:27;;;;;;;2.70;1.17;;;;;;;;;;6196146;28;21855;-71
2022/06/14 12:53:49;;;;;;;2.17;1.40;;;;;;;;;;6191312;28;20637;-73
2022/06/14 12:57:14;;;;;;;3.33;1.95;;;;;;;;;;6199089;28;20259;-72
2022/06/14 13:00:37;;;;;;;4.25;2.15;;;;;;;;;;6200232;28;20241;-70
2022/06/14 13:04:00;;;;;;;4.78;1.48;;;;;;;;;;6196514;28;20224;-73
2022/06/14 13:07:26;;;;;;;3.13;1.48;;;;;;;;;;6187823;28;20226;-72
2022/06/14 13:10:52;;;;;;;2.67;1.33;;;;;;;;;;6194308;28;20225;-73
2022/06/14 13:14:16;;;;;;;4.40;2.13;;;;;;;;;;6201729;28;20233;-72
2022/06/14 13:17:58;;;;;;;3.30;1.40;;;;;;;;;;6197162;28;20233;-73
2022/06/14 13:21:25;;;;;;;4.55;1.67;;;;;;;;;;6194588;28;20249;-73
2022/06/14 13:24:56;;;;;;;2.97;1.13;;;;;;;;;;6201804;28;20229;-77
2022/06/14 13:28:23;;;;;;;4.70;1.48;;;;;;;;;;6196298;28;20516;-76
2022/06/14 13:31:52;;;;;;;3.17;1.88;;;;;;;;;;6182028;28;20237;-73
2022/06/14 13:35:30;;;;;;;4.68;1.65;;;;;;;;;;6188074;28;20610;-72
2022/06/14 13:38:53;;;;;;;5.47;2.08;;;;;;;;;;6192643;28;20319;-74
2022/06/14 13:42:17;;;;;;;1.95;1.55;;;;;;;;;;6192577;28;20233;-77
2022/06/14 13:45:40;;;;;;;5.47;1.35;;;;;;;;;;6195464;28;20232;-68
2022/06/14 13:49:03;;;;;;;5.07;2.00;;;;;;;;;;6185594;28;20241;-70
2022/06/14 13:52:26;;;;;;;3.67;1.70;;;;;;;;;;6186543;28;20496;-67
2022/06/14 13:55:51;;;;;;;1.48;1.33;;;;;;;;;;6191950;28;20764;-67
2022/06/14 13:59:14;;;;;;;2.95;1.75;;;;;;;;;;6180614;28;21562;-69
2022/06/14 14:02:40;;;;;;;2.33;1.42;;;;;;;;;;6197228;28;20225;-66
2022/06/14 14:06:06;;;;;;;3.72;1.60;;;;;;;;;;6195697;28;20352;-67
2022/06/14 14:09:31;;;;;;;3.20;1.70;;;;;;;;;;6201579;28;21678;-67
2022/06/14 14:12:59;;;;;;;2.75;1.50;;;;;;;;;;6199529;28;20229;-66
2022/06/14 14:16:22;;;;;;;5.40;1.77;;;;;;;;;;6198069;28;20343;-66
2022/06/14 14:19:47;;;;;;;4.03;1.52;;;;;;;;;;6201207;28;20256;-68
2022/06/14 14:23:15;;;;;;;4.57;1.80;;;;;;;;;;6205999;28;20229;-69
2022/06/14 14:26:38;;;;;;;1.70;1.23;;;;;;;;;;6197339;28;20216;-69
2022/06/14 14:30:05;;;;;;;4.53;1.58;;;;;;;;;;6192205;28;20232;-68
2022/06/14 14:33:31;;;;;;;19.38;1.42;;;;;;;;;;6195865;28;20746;-65
2022/06/14 14:36:58;;;;;;;8.55;1.60;;;;;;;;;;6193274;28;20237;-70
2022/06/14 14:40:21;;;;;;;1.90;1.40;;;;;;;;;;6200655;28;20626;-69
2022/06/14 14:43:43;;;;;;;2.75;1.42;;;;;;;;;;6194997;28;21385;-69
2022/06/14 14:47:09;;;;;;;4.07;1.77;;;;;;;;;;6194697;28;20225;-69
2022/06/14 14:50:35;;;;;;;3.50;1.40;;;;;;;;;;6198717;28;20237;-70
2022/06/14 14:54:01;;;;;;;3.55;1.27;;;;;;;;;;6191618;28;21099;-72
2022/06/14 14:57:28;;;;;;;2.58;1.17;;;;;;;;;;6208901;28;20253;-72
2022/06/14 15:08:29;;;;;;;3.15;1.45;;;;;;;;;;6203735;28;20335;-70
2022/06/14 15:11:52;;;;;;;4.22;1.50;;;;;;;;;;6197389;28;20324;-74
2022/06/14 15:15:16;;;;;;;1.85;1.58;;;;;;;;;;6184650;28;20233;-72
2022/06/14 15:22:18;;;;;;;3.15;1.58;;;;;;;;;;6203450;28;20236;-73
2022/06/14 15:25:38;;;;;;;2.08;1.88;;;;;;;;;;6199666;28;20233;-73
2022/06/14 15:29:00;;;;;;;3.95;1.88;;;;;;;;;;6200100;28;20229;-73
2022/06/14 15:32:25;;;;;;;3.20;1.80;;;;;;;;;;6200934;28;20252;-70
2022/06/14 15:35:52;;;;;;;7.07;2.45;;;;;;;;;;6200608;28;20528;-70
2022/06/14 15:39:20;;;;;;;3.88;1.55;;;;;;;;;;6205254;28;20256;-69
2022/06/14 15:42:53;;;;;;;3.15;1.58;;;;;;;;;;6201049;28;20240;-69
2022/06/14 15:46:21;;;;;;;3.70;1.30;;;;;;;;;;6473317;23;20236;-68
2022/06/14 15:49:44;;;;;;;2.95;1.40;;;;;;;;;;6202162;28;20324;-70
2022/06/14 15:53:05;;;;;;;3.28;2.05;;;;;;;;;;6204345;28;20229;-70
2022/06/14 15:56:29;;;;;;;3.25;1.45;;;;;;;;;;6202696;28;20217;-70
2022/06/14 15:59:54;;;;;;;4.43;1.67;;;;;;;;;;6200809;28;20272;-69
2022/06/14 16:03:16;;;;;;;3.03;1.48;;;;;;;;;;6200513;28;20590;-69
2022/06/14 16:06:39;;;;;;;3.03;1.20;;;;;;;;;;6205397;28;20237;-70
2022/06/14 16:10:02;;;;;;;1.90;1.33;;;;;;;;;;6203912;28;20233;-70
2022/06/14 16:13:26;;;;;;;2.80;1.52;;;;;;;;;;6204929;28;20248;-69
2022/06/14 16:17:00;;;;;;;2.13;1.08;;;;;;;;;;6202849;28;20217;-69
2022/06/14 16:20:24;;;;;;;2.35;1.20;;;;;;;;;;6199944;28;20228;-71
2022/06/14 16:23:45;;;;;;;1.95;1.08;;;;;;;;;;6201049;28;20319;-71
2022/06/14 16:27:17;;;;;;;2.35;1.10;;;;;;;;;;6206313;28;20233;-70
2022/06/14 16:30:41;;;;;;;3.20;1.20;;;;;;;;;;6200694;28;20311;-70
2022/06/14 16:34:06;;;;;;;2.22;1.58;;;;;;;;;;6197201;28;20268;-70
2022/06/14 16:37:33;;;;;;;2.95;1.67;;;;;;;;;;6199048;28;20236;-71
2022/06/14 16:40:57;;;;;;;4.07;1.33;;;;;;;;;;6204336;28;20583;-70
2022/06/14 16:44:22;;;;;;;3.40;1.30;;;;;;;;;;6202084;28;20240;-71
2022/06/14 16:47:46;;;;;;;2.60;1.98;;;;;;;;;;6194004;28;20519;-70
2022/06/14 16:51:09;;;;;;;2.13;1.20;;;;;;;;;;6196213;28;20233;-70
2022/06/14 16:54:33;;;;;;;1.75;1.05;;;;;;;;;;6200962;28;20323;-70
2022/06/14 16:57:56;;;;;;;1.40;1.20;;;;;;;;;;6200043;28;20229;-69
2022/06/14 17:01:20;;;;;;;1.75;1.20;;;;;;;;;;6196535;28;20229;-68
2022/06/14 17:04:46;;;;;;;3.33;1.48;;;;;;;;;;6203699;28;20270;-68
2022/06/14 17:08:10;;;;;;;1.83;0.80;;;;;;;;;;6191463;28;20229;-68
2022/06/14 17:11:33;;;;;;;1.38;0.93;;;;;;;;;;6196725;28;20229;-71
2022/06/14 17:14:55;;;;;;;1.60;0.95;;;;;;;;;;6196353;28;20338;-70
2022/06/14 17:18:19;;;;;;;1.63;1.08;;;;;;;;;;6199755;28;20241;-69
2022/06/14 17:21:45;;;;;;;3.95;2.85;;;;;;;;;;6184921;28;20226;-68
2022/06/14 17:25:10;;;;;;;2.10;1.80;;;;;;;;;;6192546;28;20225;-68
2022/06/14 17:32:11;;;;;;;3.47;2.13;;;;;;;;;;6193094;28;20232;-70
2022/06/14 17:35:35;;;;;;;1.13;1.05;;;;;;;;;;6197816;28;20225;-70
2022/06/14 17:38:59;;;;;;;2.97;2.78;;;;;;;;;;6202755;28;20233;-70
2022/06/14 17:42:22;;;;;;;1.55;0.90;;;;;;;;;;6197166;28;20233;-70
2022/06/14 17:45:45;;;;;;;0.98;0.98;;;;;;;;;;6192925;28;20225;-68
2022/06/14 17:49:09;;;;;;;1.27;1.05;;;;;;;;;;6186735;28;20237;-70
2022/06/14 17:52:32;;;;;;;1.40;0.90;;;;;;;;;;6197324;28;20241;-69
2022/06/14 17:55:58;;;;;;;1.17;1.05;;;;;;;;;;6202109;28;20237;-70
2022/06/14 17:59:30;;;;;;;1.83;1.35;;;;;;;;;;6197947;28;20858;-67
2022/06/14 18:02:53;;;;;;;1.30;1.05;;;;;;;;;;6200915;28;20260;-70
2022/06/14 18:06:15;;;;;;;1.27;0.98;;;;;;;;;;6198884;28;20237;-68
2022/06/14 18:09:54;;;;;;;1.52;0.77;;;;;;;;;;6194659;28;20233;-69
2022/06/14 18:13:26;;;;;;;2.92;1.15;;;;;;;;;;6200666;28;20226;-68
2022/06/14 18:16:47;;;;;;;2.55;0.80;;;;;;;;;;6193255;28;20232;-69
2022/06/14 18:23:52;;;;;;;1.52;1.27;;;;;;;;;;6192486;28;20802;-70
2022/06/14 18:27:13;;;;;;;0.75;0.68;;;;;;;;;;6205132;28;20776;-67
2022/06/14 18:30:40;;;;;;;3.33;1.65;;;;;;;;;;6202942;28;20233;-68
2022/06/14 18:34:02;;;;;;;1.77;1.27;;;;;;;;;;6194310;28;20237;-69
2022/06/14 18:37:36;;;;;;;2.25;1.02;;;;;;;;;;6173759;28;20229;-69
2022/06/14 18:40:56;;;;;;;1.02;0.80;;;;;;;;;;6176129;28;20222;-69
2022/06/14 18:44:19;;;;;;;2.65;1.60;;;;;;;;;;6193939;28;20236;-70
2022/06/14 18:47:42;;;;;;;2.45;0.90;;;;;;;;;;6202054;28;20501;-69
2022/06/14 18:51:04;;;;;;;1.92;1.30;;;;;;;;;;6198337;28;20245;-68
2022/06/14 18:54:26;;;;;;;2.00;1.30;;;;;;;;;;6168110;28;20230;-69
2022/06/14 18:57:48;;;;;;;2.08;1.25;;;;;;;;;;6172178;28;20230;-68
2022/06/14 19:01:22;;;;;;;1.60;1.15;;;;;;;;;;6174142;28;20260;-69
2022/06/14 19:04:44;;;;;;;2.20;1.75;;;;;;;;;;6166552;28;20226;-71
2022/06/14 19:08:09;;;;;;;2.85;0.80;;;;;;;;;;6173149;28;20755;-69
2022/06/14 19:11:42;;;;;;;1.95;0.90;;;;;;;;;;6187830;28;20694;-67
2022/06/14 19:15:11;;;;;;;1.90;1.25;;;;;;;;;;6167651;28;20233;-69
2022/06/14 19:18:38;;;;;;;3.65;1.55;;;;;;;;;;6182010;28;20233;-70
2022/06/14 19:22:21;;;;;;;2.63;1.60;;;;;;;;;;6172905;28;20593;-70
2022/06/14 19:25:47;;;;;;;1.77;1.30;;;;;;;;;;6201799;28;20233;-69
2022/06/14 19:29:26;;;;;;;1.85;1.00;;;;;;;;;;6205266;28;20230;-70
2022/06/14 19:32:48;;;;;;;2.42;1.13;;;;;;;;;;6207397;28;20225;-69
2022/06/14 19:36:10;;;;;;;1.15;1.02;;;;;;;;;;6199390;28;20883;-69
2022/06/14 19:39:32;;;;;;;1.52;1.40;;;;;;;;;;6190150;28;20545;-71
2022/06/14 19:42:53;;;;;;;2.50;1.98;;;;;;;;;;6190036;28;20242;-69
2022/06/14 19:46:16;;;;;;;2.63;1.30;;;;;;;;;;6186064;28;20222;-69
2022/06/14 19:53:17;;;;;;;1.33;1.10;;;;;;;;;;6183863;28;20229;-69
2022/06/14 19:56:41;;;;;;;1.55;1.30;;;;;;;;;;6191635;28;20233;-69
2022/06/14 20:00:03;;;;;;;3.80;2.17;;;;;;;;;;6205752;28;20226;-70
2022/06/14 20:03:29;;;;;;;1.70;1.40;;;;;;;;;;6205280;28;20237;-69
2022/06/14 20:06:55;;;;;;;1.92;1.40;;;;;;;;;;6196588;28;20229;-70
2022/06/14 20:10:17;;;;;;;1.70;1.38;;;;;;;;;;6204739;28;20244;-69
2022/06/14 20:13:41;;;;;;;4.38;1.77;;;;;;;;;;6208513;28;20342;-70
2022/06/14 20:17:04;;;;;;;3.08;1.75;;;;;;;;;;6194578;28;20551;-72
2022/06/14 20:20:27;;;;;;;2.15;1.50;;;;;;;;;;6201901;28;20241;-71
2022/06/14 20:23:48;;;;;;;2.70;1.40;;;;;;;;;;6202088;28;20252;-70
2022/06/14 20:27:10;;;;;;;2.38;1.27;;;;;;;;;;6203624;28;20630;-69
2022/06/14 20:30:34;;;;;;;3.65;1.30;;;;;;;;;;6203168;28;20245;-70
2022/06/14 20:33:55;;;;;;;3.38;1.27;;;;;;;;;;6203918;28;20252;-69
2022/06/14 20:37:16;;;;;;;2.65;1.30;;;;;;;;;;6206014;28;20752;-67
2022/06/14 20:40:38;;;;;;;2.22;1.48;;;;;;;;;;6206448;28;20312;-69
2022/06/14 20:44:00;;;;;;;2.38;1.58;;;;;;;;;;6196022;28;20324;-74
2022/06/14 20:47:23;;;;;;;3.35;1.63;;;;;;;;;;6205151;28;20229;-74
2022/06/14 20:50:45;;;;;;;2.40;1.30;;;;;;;;;;6202678;28;20238;-73
2022/06/14 20:54:05;;;;;;;2.17;1.42;;;;;;;;;;6185192;28;20229;-74
2022/06/14 20:57:27;;;;;;;2.53;1.27;;;;;;;;;;6192323;28;21551;-74
2022/06/14 21:00:49;;;;;;;1.45;1.35;;;;;;;;;;6193454;28;20240;-73
2022/06/14 21:04:11;;;;;;;2.13;1.40;;;;;;;;;;6189029;28;20800;-73
2022/06/14 21:07:32;;;;;;;1.73;1.48;;;;;;;;;;6187193;28;20233;-73